Time;durP1;ratioP1;P1;durP2;ratioP2;P2;SDS_P1;SDS_P2;PMS_P1;PMS_P2;Temp;Humidity;BMP_temperature;BMP_pressure;BME280_temperature;BME280_humidity;BME280_pressure;Samples;Min_cycle;Max_cycle;Signal;HPM_P1;HPM_P2
2022/03/03 00:00:57;;;;;;;40.45;23.52;;;;;;;3.00;100.00;102248.19;5073021;28;20067;-32
2022/03/03 00:03:25;;;;;;;38.30;22.83;;;;;;;2.96;100.00;102249.72;5072952;28;20051;-29
2022/03/03 00:05:53;;;;;;;40.58;22.88;;;;;;;2.94;100.00;102249.06;5060767;28;20087;-29
2022/03/03 00:08:21;;;;;;;35.50;20.52;;;;;;;2.92;100.00;102245.69;5073045;28;20139;-32
2022/03/03 00:10:50;;;;;;;44.17;24.30;;;;;;;2.90;100.00;102241.44;5073155;28;20044;-30
2022/03/03 00:13:18;;;;;;;31.80;19.35;;;;;;;2.87;100.00;102234.44;5071282;28;20052;-31
2022/03/03 00:15:45;;;;;;;40.47;24.42;;;;;;;2.85;100.00;102233.81;5072689;28;20037;-28
2022/03/03 00:18:13;;;;;;;38.58;22.35;;;;;;;2.83;100.00;102237.84;5072802;28;20404;-28
2022/03/03 00:20:41;;;;;;;32.90;20.75;;;;;;;2.81;100.00;102231.69;5071453;28;20433;-33
2022/03/03 00:23:08;;;;;;;35.53;20.60;;;;;;;2.78;100.00;102238.50;5072762;28;20047;-27
2022/03/03 00:25:36;;;;;;;36.88;21.05;;;;;;;2.75;100.00;102234.25;5072480;28;20493;-31
2022/03/03 00:28:06;;;;;;;39.33;23.33;;;;;;;2.75;100.00;102233.41;5071715;28;20409;-30
2022/03/03 00:30:33;;;;;;;34.75;19.48;;;;;;;2.71;100.00;102244.00;5072362;28;20104;-30
2022/03/03 00:33:01;;;;;;;35.97;21.08;;;;;;;2.69;100.00;102237.00;5070806;28;20059;-30
2022/03/03 00:35:29;;;;;;;34.90;20.50;;;;;;;2.67;100.00;102237.22;5071411;28;20045;-34
2022/03/03 00:37:57;;;;;;;34.67;20.55;;;;;;;2.64;100.00;102245.91;5072576;28;20036;-32
2022/03/03 00:40:24;;;;;;;34.47;20.35;;;;;;;2.62;100.00;102244.41;5063850;28;20408;-29
2022/03/03 00:42:52;;;;;;;32.67;18.77;;;;;;;2.58;100.00;102240.41;5071349;28;20044;-29
2022/03/03 00:45:22;;;;;;;39.83;23.10;;;;;;;2.56;100.00;102237.88;5071411;28;20509;-28
2022/03/03 00:47:50;;;;;;;36.30;20.52;;;;;;;2.54;100.00;102230.88;5071287;28;20428;-30
2022/03/03 00:50:17;;;;;;;38.97;22.15;;;;;;;2.51;100.00;102225.78;5070734;28;20485;-32
2022/03/03 00:52:45;;;;;;;38.88;22.83;;;;;;;2.49;100.00;102227.91;5072116;28;20055;-31
2022/03/03 00:55:13;;;;;;;37.88;22.27;;;;;;;2.48;100.00;102228.97;5071198;28;20041;-32
2022/03/03 00:57:41;;;;;;;43.78;23.98;;;;;;;2.45;100.00;102226.63;5072057;28;20052;-29
2022/03/03 01:00:10;;;;;;;39.13;23.10;;;;;;;2.42;100.00;102220.47;5071670;28;20055;-31
2022/03/03 01:02:39;;;;;;;38.80;22.63;;;;;;;2.42;100.00;102214.13;5070880;28;20041;-32
2022/03/03 01:05:09;;;;;;;42.22;22.73;;;;;;;2.40;100.00;102207.97;5072008;28;20048;-27
2022/03/03 01:07:36;;;;;;;41.22;23.35;;;;;;;2.38;100.00;102204.63;5071724;28;20054;-30
2022/03/03 01:10:05;;;;;;;37.83;22.23;;;;;;;2.36;100.00;102199.31;5060189;28;20497;-29
2022/03/03 01:12:33;;;;;;;43.17;24.02;;;;;;;2.34;100.00;102200.59;5070640;28;20059;-27
2022/03/03 01:15:03;;;;;;;37.38;22.10;;;;;;;2.32;100.00;102200.78;5071109;28;20041;-30
2022/03/03 01:17:31;;;;;;;38.20;21.70;;;;;;;2.29;100.00;102189.34;5068732;28;20454;-27
2022/03/03 01:20:01;;;;;;;35.33;20.70;;;;;;;2.28;100.00;102187.66;5069823;28;20051;-27
2022/03/03 01:22:28;;;;;;;38.03;21.15;;;;;;;2.25;100.00;102188.91;5069953;28;20405;-28
2022/03/03 01:24:56;;;;;;;38.75;22.40;;;;;;;2.24;100.00;102178.97;5068866;28;20054;-30
2022/03/03 01:27:24;;;;;;;45.15;25.30;;;;;;;2.23;100.00;102171.75;5069712;28;20338;-31
2022/03/03 01:29:52;;;;;;;34.97;20.55;;;;;;;2.22;100.00;102178.31;5068933;28;20136;-30
2022/03/03 01:32:20;;;;;;;38.00;21.45;;;;;;;2.20;100.00;102174.94;5070613;28;20047;-28
2022/03/03 01:34:48;;;;;;;36.33;20.77;;;;;;;2.19;100.00;102176.00;5071908;28;20544;-30
2022/03/03 01:37:17;;;;;;;42.55;22.58;;;;;;;2.18;100.00;102179.81;5070516;28;20075;-31
2022/03/03 01:39:44;;;;;;;38.33;23.30;;;;;;;2.17;100.00;102174.53;5070594;28;20048;-27
2022/03/03 01:42:14;;;;;;;43.03;25.00;;;;;;;2.15;100.00;102169.22;5071255;28;20049;-29
2022/03/03 01:44:43;;;;;;;37.45;21.25;;;;;;;2.13;100.00;102163.09;5070595;28;20559;-30
2022/03/03 01:47:17;;;;;;;44.85;23.98;;;;;;;2.12;100.00;102161.38;5071544;28;20048;-32
2022/03/03 01:49:45;;;;;;;34.20;19.98;;;;;;;2.09;100.00;102156.31;5071339;28;20102;-29
2022/03/03 01:52:13;;;;;;;42.72;24.98;;;;;;;2.07;100.00;102162.00;5070454;28;20107;-32
2022/03/03 01:54:42;;;;;;;40.63;23.15;;;;;;;2.06;100.00;102164.97;5071465;28;20045;-28
2022/03/03 01:57:10;;;;;;;43.25;25.15;;;;;;;2.03;100.00;102157.97;5071514;28;20045;-29
2022/03/03 01:59:39;;;;;;;38.35;22.00;;;;;;;2.01;100.00;102162.84;5074777;28;20043;-31
2022/03/03 02:02:10;;;;;;;36.42;19.60;;;;;;;1.99;100.00;102155.88;5075193;28;20045;-30
2022/03/03 02:04:38;;;;;;;36.90;20.67;;;;;;;1.96;100.00;102150.78;5075221;28;20072;-28
2022/03/03 02:11:42;;;;;;;28.80;16.45;;;;;;;1.90;100.00;102146.13;5069254;28;20554;-34
2022/03/03 02:14:11;;;;;;;46.17;23.77;;;;;;;1.84;100.00;102142.31;5071667;28;20052;-30
2022/03/03 02:16:39;;;;;;;42.50;23.33;;;;;;;1.84;100.00;102135.94;5074704;28;20427;-33
2022/03/03 02:19:08;;;;;;;43.63;24.98;;;;;;;1.84;100.00;102135.94;5074013;28;20060;-30
2022/03/03 02:21:37;;;;;;;42.40;24.23;;;;;;;1.83;100.00;102142.50;5075242;28;20055;-30
2022/03/03 02:24:07;;;;;;;38.33;21.15;;;;;;;1.81;100.00;102134.47;5075048;28;20052;-31
2022/03/03 02:26:35;;;;;;;40.15;22.52;;;;;;;1.81;100.00;102141.88;5074092;28;20042;-31
2022/03/03 02:29:03;;;;;;;38.40;22.40;;;;;;;1.79;100.00;102133.84;5074943;28;20051;-32
2022/03/03 02:31:30;;;;;;;32.25;18.25;;;;;;;1.78;100.00;102123.06;5074660;28;20040;-29
2022/03/03 02:33:59;;;;;;;31.17;18.20;;;;;;;1.75;100.00;102128.97;5073805;28;20040;-28
2022/03/03 02:36:29;;;;;;;25.77;14.70;;;;;;;1.73;100.00;102124.53;5074414;28;20051;-28
2022/03/03 02:38:59;;;;;;;27.63;15.93;;;;;;;1.70;100.00;102130.44;5074453;28;20047;-29
2022/03/03 02:41:29;;;;;;;27.08;15.75;;;;;;;1.68;100.00;102126.19;5073664;28;20436;-26
2022/03/03 02:43:57;;;;;;;35.22;20.27;;;;;;;1.64;100.00;102125.75;5074472;28;20053;-30
2022/03/03 02:46:25;;;;;;;34.58;19.50;;;;;;;1.61;100.00;102122.59;5074270;28;20044;-30
2022/03/03 02:48:53;;;;;;;26.70;16.17;;;;;;;1.60;100.00;102116.22;5073788;28;20072;-31
2022/03/03 02:51:21;;;;;;;33.30;18.30;;;;;;;1.59;100.00;102121.97;5074375;28;20049;-30
2022/03/03 02:53:49;;;;;;;41.45;23.38;;;;;;;1.58;100.00;102112.88;5073976;28;20044;-34
2022/03/03 02:56:18;;;;;;;47.88;26.70;;;;;;;1.58;100.00;102104.63;5073761;28;20040;-31
2022/03/03 02:58:45;;;;;;;46.53;26.63;;;;;;;1.58;100.00;102112.88;5074152;28;20036;-31
2022/03/03 03:01:13;;;;;;;51.47;27.85;;;;;;;1.59;100.00;102111.81;5073934;28;20135;-31
2022/03/03 03:03:42;;;;;;;45.65;26.58;;;;;;;1.58;100.00;102107.38;5074496;28;20505;-29
2022/03/03 03:06:13;;;;;;;46.03;25.00;;;;;;;1.58;100.00;102099.13;5073918;28;20055;-31
2022/03/03 03:08:41;;;;;;;36.90;21.48;;;;;;;1.58;100.00;102101.88;5073176;28;20127;-31
2022/03/03 03:11:09;;;;;;;39.80;23.35;;;;;;;1.58;100.00;102098.28;5073871;28;20087;-32
2022/03/03 03:13:38;;;;;;;43.33;23.92;;;;;;;1.57;100.00;102093.81;5073022;28;20556;-27
2022/03/03 03:16:06;;;;;;;45.72;25.95;;;;;;;1.56;100.00;102087.47;5073300;28;20053;-30
2022/03/03 03:18:34;;;;;;;50.10;27.23;;;;;;;1.55;100.00;102083.03;5073802;28;20048;-28
2022/03/03 03:21:02;;;;;;;44.10;24.65;;;;;;;1.55;100.00;102091.28;5073883;28;20044;-29
2022/03/03 03:23:29;;;;;;;47.30;26.90;;;;;;;1.58;100.00;102087.25;5072838;28;20079;-37
2022/03/03 03:25:57;;;;;;;51.10;28.90;;;;;;;1.56;100.00;102073.72;5073657;28;20406;-32
2022/03/03 03:28:25;;;;;;;48.40;26.17;;;;;;;1.57;100.00;102080.06;5073873;28;20056;-29
2022/03/03 03:30:54;;;;;;;49.75;27.58;;;;;;;1.55;100.00;102072.03;5073040;28;20055;-31
2022/03/03 03:33:22;;;;;;;50.42;28.05;;;;;;;1.55;100.00;102063.78;5073659;28;20045;-28
2022/03/03 03:35:50;;;;;;;45.55;26.35;;;;;;;1.54;100.00;102070.34;5073338;28;20048;-32
2022/03/03 03:38:17;;;;;;;50.22;27.63;;;;;;;1.52;100.00;102064.19;5072936;28;20407;-32
2022/03/03 03:40:45;;;;;;;51.03;28.88;;;;;;;1.52;100.00;102066.09;5073867;28;20040;-28
2022/03/03 03:43:13;;;;;;;51.63;28.15;;;;;;;1.51;100.00;102059.75;5073251;28;20086;-32
2022/03/03 03:45:41;;;;;;;47.25;27.45;;;;;;;1.50;100.00;102055.28;5073130;28;20047;-26
2022/03/03 03:48:10;;;;;;;44.90;25.95;;;;;;;1.49;100.00;102061.84;5073265;28;20450;-29
2022/03/03 03:50:38;;;;;;;42.88;24.65;;;;;;;1.48;100.00;102054.66;5072480;28;20519;-28
2022/03/03 03:53:05;;;;;;;47.00;26.15;;;;;;;1.47;100.00;102063.97;5073052;28;20036;-28
2022/03/03 03:55:33;;;;;;;38.53;21.85;;;;;;;1.46;100.00;102062.25;5073386;28;20048;-30
2022/03/03 03:58:01;;;;;;;44.28;24.83;;;;;;;1.47;100.00;102052.13;5072326;28;20048;-30
2022/03/03 04:00:29;;;;;;;42.80;23.70;;;;;;;1.45;100.00;102055.06;5073310;28;20059;-30
2022/03/03 04:02:57;;;;;;;30.67;18.23;;;;;;;1.44;100.00;102050.63;5072603;28;20493;-30
2022/03/03 04:05:27;;;;;;;35.75;21.80;;;;;;;1.43;100.00;102046.19;5072104;28;20110;-28
2022/03/03 04:07:54;;;;;;;48.03;26.65;;;;;;;1.42;100.00;102046.38;5072729;28;20040;-31
2022/03/03 04:10:22;;;;;;;42.55;24.83;;;;;;;1.40;100.00;102048.53;5072454;28;20489;-35
2022/03/03 04:12:50;;;;;;;44.22;22.27;;;;;;;1.39;100.00;102050.44;5072177;28;20044;-34
2022/03/03 04:15:18;;;;;;;33.38;19.23;;;;;;;1.36;100.00;102048.94;5072665;28;20040;-29
2022/03/03 04:17:46;;;;;;;31.73;18.00;;;;;;;1.35;100.00;102057.41;5072738;28;20516;-31
2022/03/03 04:20:14;;;;;;;36.78;20.95;;;;;;;1.33;100.00;102043.84;5070920;28;20428;-29
2022/03/03 04:22:43;;;;;;;42.10;23.23;;;;;;;1.32;100.00;102044.91;5072952;28;20051;-30
2022/03/03 04:25:11;;;;;;;35.50;20.42;;;;;;;1.30;100.00;102057.16;5072390;28;20129;-34
2022/03/03 04:27:39;;;;;;;47.63;25.73;;;;;;;1.30;100.00;102052.53;5072056;28;20441;-31
2022/03/03 04:30:10;;;;;;;42.40;24.50;;;;;;;1.30;100.00;102057.16;5072498;28;20059;-28
2022/03/03 04:32:39;;;;;;;44.58;25.20;;;;;;;1.30;100.00;102062.66;5072059;28;20113;-31
2022/03/03 04:35:09;;;;;;;44.53;25.90;;;;;;;1.29;100.00;102047.22;5072593;28;20047;-31
2022/03/03 04:37:37;;;;;;;40.80;24.55;;;;;;;1.28;100.00;102043.63;5072595;28;20125;-29
2022/03/03 04:40:08;;;;;;;47.00;26.55;;;;;;;1.29;100.00;102058.22;5071407;28;20051;-29
2022/03/03 04:42:36;;;;;;;41.10;23.33;;;;;;;1.27;100.00;102054.84;5071758;28;20048;-27
2022/03/03 04:45:06;;;;;;;45.65;26.30;;;;;;;1.25;100.00;102052.28;5071634;28;20066;-29
2022/03/03 04:47:34;;;;;;;43.60;24.27;;;;;;;1.23;100.00;102053.53;5071334;28;20098;-28
2022/03/03 04:50:02;;;;;;;46.88;25.85;;;;;;;1.21;100.00;102042.75;5071483;28;20123;-28
2022/03/03 04:52:30;;;;;;;40.60;22.63;;;;;;;1.22;100.00;102049.09;5072110;28;20471;-33
2022/03/03 04:54:57;;;;;;;34.70;19.77;;;;;;;1.20;100.00;102048.50;5068296;28;20051;-28
2022/03/03 04:57:27;;;;;;;30.33;18.42;;;;;;;1.22;100.00;102040.84;5070128;28;20121;-29
2022/03/03 04:59:55;;;;;;;37.67;21.27;;;;;;;1.21;100.00;102044.66;5069286;28;20078;-30
2022/03/03 05:02:23;;;;;;;40.80;23.40;;;;;;;1.19;100.00;102044.91;5069003;28;20048;-31
2022/03/03 05:04:51;;;;;;;41.65;23.67;;;;;;;1.19;100.00;102036.66;5071111;28;20053;-28
2022/03/03 05:07:19;;;;;;;44.58;25.90;;;;;;;1.19;100.00;102027.56;5070644;28;20128;-29
2022/03/03 05:09:47;;;;;;;45.33;26.33;;;;;;;1.20;100.00;102026.50;5070636;28;20456;-28
2022/03/03 05:12:14;;;;;;;49.42;27.83;;;;;;;1.19;100.00;102039.41;5071548;28;20048;-27
2022/03/03 05:14:44;;;;;;;44.17;25.25;;;;;;;1.19;100.00;102033.91;5071541;28;20514;-29
2022/03/03 05:17:11;;;;;;;33.80;19.05;;;;;;;1.18;100.00;102029.47;5071191;28;20044;-34
2022/03/03 05:19:39;;;;;;;40.10;21.95;;;;;;;1.17;100.00;102026.91;5071733;28;20079;-30
2022/03/03 05:22:07;;;;;;;46.60;27.23;;;;;;;1.15;100.00;102023.53;5070796;28;20052;-31
2022/03/03 05:24:34;;;;;;;45.00;26.15;;;;;;;1.12;100.00;102026.69;5071781;28;20429;-28
2022/03/03 05:27:03;;;;;;;45.08;25.95;;;;;;;1.09;100.00;102029.84;5071469;28;20066;-30
2022/03/03 05:29:31;;;;;;;41.67;24.85;;;;;;;1.06;100.00;102022.00;5070934;28;20037;-29
2022/03/03 05:32:00;;;;;;;44.53;25.17;;;;;;;1.03;100.00;102026.00;5071322;28;20044;-30
2022/03/03 05:34:28;;;;;;;45.47;26.25;;;;;;;1.01;100.00;102023.47;5071423;28;20037;-30
2022/03/03 05:36:56;;;;;;;48.33;27.67;;;;;;;0.99;100.00;102024.75;5059655;28;20048;-31
2022/03/03 05:39:24;;;;;;;44.08;24.13;;;;;;;0.96;100.00;102028.78;5071282;28;20309;-27
2022/03/03 05:41:55;;;;;;;42.83;24.38;;;;;;;0.96;100.00;102027.91;5071143;28;20055;-31
2022/03/03 05:44:22;;;;;;;44.05;25.17;;;;;;;0.95;100.00;102032.56;5070731;28;20048;-30
2022/03/03 05:46:51;;;;;;;48.22;27.45;;;;;;;0.94;100.00;102036.38;5067834;28;20111;-28
2022/03/03 05:49:20;;;;;;;50.03;26.70;;;;;;;0.95;100.00;102031.72;5071206;28;20045;-32
2022/03/03 05:51:49;;;;;;;42.35;24.45;;;;;;;0.93;100.00;102034.69;5070387;28;20140;-30
2022/03/03 05:54:16;;;;;;;40.17;23.05;;;;;;;0.94;100.00;102030.03;5071586;28;20131;-26
2022/03/03 05:56:49;;;;;;;42.00;24.55;;;;;;;0.93;100.00;102031.94;5071024;28;20049;-32
2022/03/03 05:59:17;;;;;;;42.92;24.27;;;;;;;0.92;100.00;102041.22;5067663;28;20044;-34
2022/03/03 06:01:45;;;;;;;33.75;18.40;;;;;;;0.93;100.00;102040.16;5071081;28;20394;-33
2022/03/03 06:04:15;;;;;;;31.52;18.92;;;;;;;0.92;100.00;102043.13;5070293;28;20058;-30
2022/03/03 06:06:53;;;;;;;38.50;22.15;;;;;;;0.90;100.00;102043.31;5071048;28;20059;-29
2022/03/03 06:09:25;;;;;;;50.05;28.75;;;;;;;0.89;100.00;102049.88;5070511;28;20045;-27
2022/03/03 06:12:00;;;;;;;38.38;20.80;;;;;;;0.89;100.00;102049.03;5069664;28;20131;-30
2022/03/03 06:14:31;;;;;;;43.03;24.75;;;;;;;0.89;100.00;102041.63;5069518;28;20045;-31
2022/03/03 06:17:00;;;;;;;49.20;29.08;;;;;;;0.88;100.00;102048.19;5069704;28;20519;-28
2022/03/03 06:19:29;;;;;;;44.05;26.13;;;;;;;0.89;100.00;102047.13;5068036;28;20041;-29
2022/03/03 06:21:58;;;;;;;45.50;26.63;;;;;;;0.90;100.00;102046.06;5069446;28;20389;-27
2022/03/03 06:24:26;;;;;;;49.65;27.80;;;;;;;0.93;100.00;102044.81;5068230;28;20041;-30
2022/03/03 06:26:54;;;;;;;54.50;30.58;;;;;;;0.92;100.00;102054.97;5068266;28;20063;-29
2022/03/03 06:29:21;;;;;;;43.60;25.73;;;;;;;0.95;100.00;102059.19;5068611;28;20284;-30
2022/03/03 06:31:49;;;;;;;52.05;30.08;;;;;;;0.94;100.00;102055.59;5070346;28;20044;-29
2022/03/03 06:34:17;;;;;;;53.67;29.77;;;;;;;0.95;100.00;102062.81;5069880;28;20068;-30
2022/03/03 06:36:45;;;;;;;48.03;26.55;;;;;;;0.95;100.00;102053.72;5070353;28;20427;-28
2022/03/03 06:39:14;;;;;;;44.88;24.77;;;;;;;0.96;100.00;102055.41;5070182;28;20049;-30
2022/03/03 06:41:42;;;;;;;48.00;28.05;;;;;;;0.95;100.00;102057.31;5070100;28;20064;-28
2022/03/03 06:44:09;;;;;;;55.70;29.50;;;;;;;0.95;100.00;102057.31;5071729;28;20056;-29
2022/03/03 06:46:38;;;;;;;51.67;29.88;;;;;;;0.96;100.00;102060.91;5073308;28;20520;-30
2022/03/03 06:49:11;;;;;;;52.00;28.73;;;;;;;0.96;100.00;102053.50;5074041;28;20135;-31
2022/03/03 06:51:41;;;;;;;49.92;27.50;;;;;;;0.97;100.00;102060.69;5073825;28;20159;-30
2022/03/03 06:54:14;;;;;;;52.05;31.00;;;;;;;0.97;100.00;102063.44;5072952;28;20056;-26
2022/03/03 06:56:47;;;;;;;55.33;30.80;;;;;;;0.98;100.00;102059.66;5064079;28;20056;-31
2022/03/03 06:59:16;;;;;;;51.80;28.58;;;;;;;0.97;100.00;102057.94;5070333;28;20044;-31
2022/03/03 07:01:47;;;;;;;49.53;27.83;;;;;;;1.00;100.00;102064.91;5073312;28;20433;-29
2022/03/03 07:04:17;;;;;;;50.17;28.73;;;;;;;1.01;100.00;102063.84;5073640;28;20052;-29
2022/03/03 07:06:46;;;;;;;51.95;28.73;;;;;;;1.02;100.00;102073.78;5073399;28;20049;-29
2022/03/03 07:09:16;;;;;;;51.50;29.20;;;;;;;1.03;100.00;102068.09;5072400;28;20066;-29
2022/03/03 07:11:45;;;;;;;48.13;27.67;;;;;;;1.07;100.00;102068.53;5069573;28;20144;-29
2022/03/03 07:14:13;;;;;;;51.35;28.30;;;;;;;1.11;100.00;102068.97;5072024;28;20550;-27
2022/03/03 07:16:44;;;;;;;53.45;30.23;;;;;;;1.16;100.00;102071.94;5070461;28;20135;-26
2022/03/03 07:19:35;;;;;;;52.22;28.73;;;;;;;1.25;100.00;102067.94;5071784;28;20049;-28
2022/03/03 07:22:09;;;;;;;42.72;23.83;;;;;;;1.40;100.00;102071.34;5068086;28;20490;-28
2022/03/03 07:24:44;;;;;;;54.35;30.92;;;;;;;1.68;100.00;102071.19;5072083;28;20155;-32
2022/03/03 07:27:19;;;;;;;55.20;30.98;;;;;;;1.98;100.00;102077.97;5066850;28;20051;-30
2022/03/03 07:29:51;;;;;;;54.25;29.73;;;;;;;2.32;100.00;102068.59;5071191;28;20050;-28
2022/03/03 07:32:20;;;;;;;51.83;29.38;;;;;;;2.65;100.00;102067.63;5072104;28;20048;-30
2022/03/03 07:34:59;;;;;;;52.22;29.70;;;;;;;3.02;100.00;102069.59;5072129;28;20044;-34
2022/03/03 07:37:32;;;;;;;47.97;27.00;;;;;;;3.41;100.00;102073.19;5070990;28;20126;-32
2022/03/03 07:40:06;;;;;;;45.97;27.75;;;;;;;3.63;100.00;102066.25;5071766;28;20051;-29
2022/03/03 07:42:34;;;;;;;42.55;26.58;;;;;;;3.90;100.00;102063.28;5069456;28;20059;-29
2022/03/03 07:45:05;;;;;;;40.88;25.75;;;;;;;4.18;100.00;102052.63;5071996;28;20040;-33
2022/03/03 07:47:34;;;;;;;38.83;25.02;;;;;;;4.43;100.00;102052.56;5071822;28;20053;-33
2022/03/03 07:50:03;;;;;;;35.97;22.17;;;;;;;4.66;100.00;102061.00;5070972;28;20036;-30
2022/03/03 07:52:31;;;;;;;37.45;24.38;;;;;;;4.95;100.00;102053.84;5071456;28;20052;-29
2022/03/03 07:54:59;;;;;;;35.20;22.25;;;;;;;5.13;100.00;102053.81;5071785;28;20055;-28
2022/03/03 07:57:36;;;;;;;35.58;21.88;;;;;;;5.39;100.00;102057.31;5070655;28;20068;-30
2022/03/03 08:00:07;;;;;;;36.80;23.13;;;;;;;5.57;100.00;102060.00;5063455;28;20489;-32
2022/03/03 08:02:35;;;;;;;34.10;23.13;;;;;;;5.83;100.00;102062.31;5071267;28;20499;-33
2022/03/03 08:05:05;;;;;;;29.83;20.13;;;;;;;6.07;100.00;102062.38;5071397;28;20407;-26
2022/03/03 08:07:39;;;;;;;34.03;21.83;;;;;;;6.34;100.00;102073.84;5072793;28;20059;-30
2022/03/03 08:10:09;;;;;;;36.75;22.00;;;;;;;6.48;100.00;102062.25;5072151;28;20049;-31
2022/03/03 08:12:39;;;;;;;30.98;20.95;;;;;;;6.61;99.50;102065.84;5071705;28;20048;-31
2022/03/03 08:15:09;;;;;;;30.77;19.25;;;;;;;6.67;97.38;102070.44;5072328;28;20094;-33
2022/03/03 08:17:37;;;;;;;28.85;19.95;;;;;;;6.66;93.57;102068.75;5071965;28;20485;-29
2022/03/03 08:20:08;;;;;;;30.88;19.63;;;;;;;6.86;93.58;102066.41;5071545;28;20044;-32
2022/03/03 08:22:38;;;;;;;29.40;20.23;;;;;;;7.13;95.83;102073.09;5072253;28;20053;-29
2022/03/03 08:25:08;;;;;;;30.73;19.15;;;;;;;7.39;91.72;102071.69;5071095;28;20560;-32
2022/03/03 08:27:36;;;;;;;25.52;17.98;;;;;;;7.80;93.39;102084.34;5071995;28;20059;-29
2022/03/03 08:30:08;;;;;;;26.92;18.70;;;;;;;8.40;91.78;102086.50;5071903;28;20501;-31
2022/03/03 08:32:38;;;;;;;26.77;17.95;;;;;;;8.73;87.84;102073.63;5071333;28;20501;-35
2022/03/03 08:35:13;;;;;;;25.85;19.23;;;;;;;8.93;85.64;102074.75;5071936;28;20059;-33
2022/03/03 08:37:43;;;;;;;26.60;17.85;;;;;;;9.03;82.88;102067.59;5071461;28;20144;-29
2022/03/03 08:40:14;;;;;;;24.90;17.05;;;;;;;9.32;82.63;102064.34;5071357;28;20489;-31
2022/03/03 08:42:45;;;;;;;25.45;17.65;;;;;;;9.67;81.70;102071.41;5071612;28;20044;-31
2022/03/03 08:45:14;;;;;;;22.63;16.30;;;;;;;10.09;77.67;102076.25;5060654;28;20044;-32
2022/03/03 08:47:44;;;;;;;22.35;16.50;;;;;;;10.19;75.83;102073.59;5069865;28;20056;-29
2022/03/03 08:50:14;;;;;;;23.73;17.42;;;;;;;10.32;74.99;102071.16;5071808;28;20071;-35
2022/03/03 08:52:54;;;;;;;23.65;16.80;;;;;;;10.45;73.47;102083.81;5070154;28;20451;-30
2022/03/03 08:55:22;;;;;;;25.98;16.83;;;;;;;10.85;74.52;102074.00;5071725;28;20079;-32
2022/03/03 08:57:50;;;;;;;22.42;16.17;;;;;;;11.28;71.04;102081.16;5071409;28;20045;-33
2022/03/03 09:00:19;;;;;;;21.50;16.08;;;;;;;11.20;68.57;102084.47;5067120;28;20552;-33
2022/03/03 09:02:48;;;;;;;23.35;17.23;;;;;;;10.99;67.16;102078.00;5071827;28;20469;-30
2022/03/03 09:05:16;;;;;;;21.15;15.82;;;;;;;10.83;67.37;102079.84;5071093;28;20036;-31
2022/03/03 09:07:44;;;;;;;22.63;16.00;;;;;;;10.77;68.13;102085.69;5069856;28;20052;-31
2022/03/03 09:10:12;;;;;;;20.77;15.13;;;;;;;10.81;67.44;102086.81;5071303;28;20362;-31
2022/03/03 09:12:40;;;;;;;21.42;15.73;;;;;;;10.87;66.95;102091.31;5071539;28;20401;-34
2022/03/03 09:15:09;;;;;;;21.40;14.90;;;;;;;10.91;65.83;102084.94;5070694;28;20045;-32
2022/03/03 09:17:39;;;;;;;21.38;15.40;;;;;;;10.91;64.71;102100.84;5071329;28;20049;-31
2022/03/03 09:20:11;;;;;;;19.98;15.45;;;;;;;10.91;64.65;102096.09;5070750;28;20044;-30
2022/03/03 09:22:39;;;;;;;21.13;15.10;;;;;;;10.85;63.91;102099.13;5070596;28;20481;-31
2022/03/03 09:25:07;;;;;;;20.55;14.75;;;;;;;10.80;64.84;102093.50;5071120;28;20063;-30
2022/03/03 09:27:36;;;;;;;20.15;14.82;;;;;;;10.95;64.85;102086.06;5070959;28;20040;-33
2022/03/03 09:30:05;;;;;;;22.05;15.93;;;;;;;11.07;62.78;102085.84;5070628;28;20051;-31
2022/03/03 09:32:34;;;;;;;21.20;15.75;;;;;;;10.99;63.17;102089.16;5070947;28;20049;-32
2022/03/03 09:35:03;;;;;;;21.35;15.55;;;;;;;11.18;62.31;102093.16;5070964;28;20045;-33
2022/03/03 09:37:31;;;;;;;21.23;14.95;;;;;;;11.35;61.83;102082.59;5070469;28;20131;-30
2022/03/03 09:39:59;;;;;;;19.73;14.60;;;;;;;11.47;61.66;102087.09;5071077;28;20412;-32
2022/03/03 09:42:31;;;;;;;20.52;14.13;;;;;;;11.49;60.57;102088.50;5070131;28;20063;-33
2022/03/03 09:44:59;;;;;;;19.15;14.50;;;;;;;11.61;60.07;102079.84;5070898;28;20036;-31
2022/03/03 09:47:27;;;;;;;20.90;14.38;;;;;;;11.81;59.78;102076.28;5070819;28;20040;-32
2022/03/03 09:49:55;;;;;;;19.98;14.85;;;;;;;11.98;59.83;102083.31;5069292;28;20068;-35
2022/03/03 09:52:24;;;;;;;19.90;15.18;;;;;;;12.04;59.00;102078.53;5070903;28;20048;-31
2022/03/03 09:54:55;;;;;;;20.50;15.60;;;;;;;12.07;58.21;102075.19;5070184;28;20051;-33
2022/03/03 09:57:24;;;;;;;19.60;14.35;;;;;;;12.06;57.81;102073.50;5070453;28;20051;-33
2022/03/03 09:59:53;;;;;;;18.52;13.93;;;;;;;12.20;56.93;102071.81;5070460;28;20048;-30
2022/03/03 10:02:21;;;;;;;18.10;14.35;;;;;;;12.24;57.06;102063.69;5066817;28;20499;-31
2022/03/03 10:04:49;;;;;;;19.23;14.18;;;;;;;12.11;56.60;102069.88;5070050;28;20047;-31
2022/03/03 10:07:16;;;;;;;20.95;14.90;;;;;;;11.85;55.22;102064.25;5070676;28;20041;-31
2022/03/03 10:10:02;;;;;;;18.17;13.70;;;;;;;11.93;57.61;102068.47;5070535;28;20568;-33
2022/03/03 10:12:42;;;;;;;17.25;13.52;;;;;;;12.25;58.11;102068.19;5069320;28;20052;-35
2022/03/03 10:15:13;;;;;;;19.10;13.95;;;;;;;12.59;56.34;102072.03;5070860;28;20083;-33
2022/03/03 10:17:41;;;;;;;18.55;14.55;;;;;;;12.88;54.81;102060.22;5070278;28;20138;-36
2022/03/03 10:20:10;;;;;;;19.13;13.95;;;;;;;12.96;55.32;102068.03;5073762;28;20127;-35
2022/03/03 10:22:42;;;;;;;16.42;13.35;;;;;;;13.31;54.12;102064.25;5074332;28;20048;-30
2022/03/03 10:25:14;;;;;;;19.05;14.43;;;;;;;13.45;52.41;102065.31;5073712;28;20056;-35
2022/03/03 10:27:42;;;;;;;17.13;13.40;;;;;;;13.26;52.14;102061.47;5074446;28;20051;-34
2022/03/03 10:30:11;;;;;;;16.90;13.20;;;;;;;13.07;51.92;102053.69;5074159;28;20050;-31
2022/03/03 10:32:39;;;;;;;17.83;13.20;;;;;;;13.15;52.09;102066.31;5073626;28;20045;-29
2022/03/03 10:35:15;;;;;;;18.55;14.13;;;;;;;13.21;51.48;102064.31;5074140;28;20131;-29
2022/03/03 10:37:44;;;;;;;16.20;12.93;;;;;;;13.30;50.66;102060.63;5074305;28;20148;-35
2022/03/03 10:40:15;;;;;;;16.63;13.10;;;;;;;13.25;51.02;102055.03;5073663;28;20037;-33
2022/03/03 10:42:44;;;;;;;16.30;13.35;;;;;;;13.24;48.76;102066.53;5074069;28;20049;-31
2022/03/03 10:45:15;;;;;;;17.25;13.02;;;;;;;13.05;49.29;102066.31;5073717;28;20313;-32
2022/03/03 10:47:47;;;;;;;16.73;13.20;;;;;;;12.89;49.29;102061.88;5073419;28;20052;-33
2022/03/03 10:50:15;;;;;;;15.70;12.60;;;;;;;12.70;47.92;102064.47;5074080;28;20051;-29
2022/03/03 10:52:44;;;;;;;14.45;11.82;;;;;;;12.77;48.77;102076.22;5073201;28;20060;-34
2022/03/03 10:55:17;;;;;;;15.27;11.70;;;;;;;12.52;48.47;102073.47;5073733;28;20068;-32
2022/03/03 10:57:46;;;;;;;16.00;12.23;;;;;;;12.67;49.66;102065.88;5073803;28;20098;-26
2022/03/03 11:00:16;;;;;;;14.82;12.32;;;;;;;12.72;48.59;102068.66;5072922;28;20093;-31
2022/03/03 11:02:46;;;;;;;16.90;12.57;;;;;;;12.35;46.37;102073.78;5073637;28;20083;-32
2022/03/03 11:05:15;;;;;;;17.02;13.25;;;;;;;12.31;49.80;102064.25;5073542;28;20048;-31
2022/03/03 11:07:45;;;;;;;17.48;13.18;;;;;;;12.39;48.28;102055.28;5072908;28;20080;-30
2022/03/03 11:10:16;;;;;;;18.42;13.82;;;;;;;12.23;48.71;102059.22;5073514;28;20060;-29
2022/03/03 11:12:45;;;;;;;15.95;12.85;;;;;;;11.98;49.60;102051.69;5053648;28;20494;-29
2022/03/03 11:15:14;;;;;;;17.00;13.18;;;;;;;12.00;48.91;102058.66;5062096;28;20169;-29
2022/03/03 11:17:43;;;;;;;17.80;13.88;;;;;;;12.06;49.19;102043.56;5072390;28;20165;-31
2022/03/03 11:20:14;;;;;;;18.50;13.75;;;;;;;12.25;50.10;102049.44;5073131;28;20481;-33
2022/03/03 11:22:43;;;;;;;22.80;16.02;;;;;;;12.52;50.38;102057.53;5072692;28;20135;-29